sensor_id;sensor_type;location;lat;lon;timestamp;pressure;altitude;pressure_sealevel;temperature
48003;BMP280;33768;48.578;11.574;2024-03-07T00:00:31;96834.22;;;2.86
48003;BMP280;33768;48.578;11.574;2024-03-07T00:03:36;96847.25;;;2.87
48003;BMP280;33768;48.578;11.574;2024-03-07T00:06:58;96829.03;;;2.82
48003;BMP280;33768;48.578;11.574;2024-03-07T00:10:02;96834.78;;;2.76
48003;BMP280;33768;48.578;11.574;2024-03-07T00:13:07;96841.66;;;2.77
48003;BMP280;33768;48.578;11.574;2024-03-07T00:16:11;96840.16;;;2.76
48003;BMP280;33768;48.578;11.574;2024-03-07T00:19:17;96831.78;;;2.74
48003;BMP280;33768;48.578;11.574;2024-03-07T00:22:22;96836.44;;;2.73
48003;BMP280;33768;48.578;11.574;2024-03-07T00:25:26;96841.00;;;2.67
48003;BMP280;33768;48.578;11.574;2024-03-07T00:28:31;96828.06;;;2.57
48003;BMP280;33768;48.578;11.574;2024-03-07T00:31:39;96825.09;;;2.55
48003;BMP280;33768;48.578;11.574;2024-03-07T00:34:43;96830.50;;;2.55
48003;BMP280;33768;48.578;11.574;2024-03-07T00:37:48;96830.19;;;2.53
48003;BMP280;33768;48.578;11.574;2024-03-07T00:40:53;96833.25;;;2.46
48003;BMP280;33768;48.578;11.574;2024-03-07T00:43:57;96832.03;;;2.33
48003;BMP280;33768;48.578;11.574;2024-03-07T00:47:02;96832.38;;;2.26
48003;BMP280;33768;48.578;11.574;2024-03-07T00:50:06;96831.34;;;2.23
48003;BMP280;33768;48.578;11.574;2024-03-07T00:53:12;96820.88;;;2.25
48003;BMP280;33768;48.578;11.574;2024-03-07T00:56:16;96826.84;;;2.29
48003;BMP280;33768;48.578;11.574;2024-03-07T00:59:20;96826.44;;;2.36
48003;BMP280;33768;48.578;11.574;2024-03-07T01:02:24;96826.28;;;2.40
48003;BMP280;33768;48.578;11.574;2024-03-07T01:05:29;96817.44;;;2.39
48003;BMP280;33768;48.578;11.574;2024-03-07T01:08:34;96818.22;;;2.40
48003;BMP280;33768;48.578;11.574;2024-03-07T01:11:44;96817.28;;;2.43
48003;BMP280;33768;48.578;11.574;2024-03-07T01:14:51;96822.47;;;2.46
48003;BMP280;33768;48.578;11.574;2024-03-07T01:17:56;96815.03;;;2.41
48003;BMP280;33768;48.578;11.574;2024-03-07T01:21:01;96823.13;;;2.41
48003;BMP280;33768;48.578;11.574;2024-03-07T01:24:05;96816.41;;;2.37
48003;BMP280;33768;48.578;11.574;2024-03-07T01:27:09;96817.19;;;2.37
48003;BMP280;33768;48.578;11.574;2024-03-07T01:30:14;96806.56;;;2.34
48003;BMP280;33768;48.578;11.574;2024-03-07T01:33:18;96810.56;;;2.38
48003;BMP280;33768;48.578;11.574;2024-03-07T01:36:23;96811.16;;;2.42
48003;BMP280;33768;48.578;11.574;2024-03-07T01:39:27;96806.94;;;2.41
48003;BMP280;33768;48.578;11.574;2024-03-07T01:42:31;96800.09;;;2.40
48003;BMP280;33768;48.578;11.574;2024-03-07T01:45:36;96785.41;;;2.41
48003;BMP280;33768;48.578;11.574;2024-03-07T01:48:41;96793.75;;;2.43
48003;BMP280;33768;48.578;11.574;2024-03-07T01:51:45;96793.47;;;2.41
48003;BMP280;33768;48.578;11.574;2024-03-07T01:54:50;96780.00;;;2.41
48003;BMP280;33768;48.578;11.574;2024-03-07T01:57:59;96786.91;;;2.42
48003;BMP280;33768;48.578;11.574;2024-03-07T02:01:05;96779.56;;;2.43
48003;BMP280;33768;48.578;11.574;2024-03-07T02:04:09;96778.81;;;2.42
48003;BMP280;33768;48.578;11.574;2024-03-07T02:07:13;96777.31;;;2.41
48003;BMP280;33768;48.578;11.574;2024-03-07T02:10:17;96770.44;;;2.40
48003;BMP280;33768;48.578;11.574;2024-03-07T02:13:22;96776.38;;;2.44
48003;BMP280;33768;48.578;11.574;2024-03-07T02:16:26;96766.38;;;2.45
48003;BMP280;33768;48.578;11.574;2024-03-07T02:19:30;96772.50;;;2.45
48003;BMP280;33768;48.578;11.574;2024-03-07T02:22:39;96772.94;;;2.44
48003;BMP280;33768;48.578;11.574;2024-03-07T02:25:43;96771.38;;;2.37
48003;BMP280;33768;48.578;11.574;2024-03-07T02:28:47;96768.41;;;2.35
48003;BMP280;33768;48.578;11.574;2024-03-07T02:31:51;96761.34;;;2.38
48003;BMP280;33768;48.578;11.574;2024-03-07T02:34:55;96770.16;;;2.38
48003;BMP280;33768;48.578;11.574;2024-03-07T02:37:59;96756.41;;;2.36
48003;BMP280;33768;48.578;11.574;2024-03-07T02:41:03;96769.03;;;2.30
48003;BMP280;33768;48.578;11.574;2024-03-07T02:44:07;96757.44;;;2.24
48003;BMP280;33768;48.578;11.574;2024-03-07T02:47:12;96761.31;;;2.23
48003;BMP280;33768;48.578;11.574;2024-03-07T02:50:16;96756.13;;;2.20
48003;BMP280;33768;48.578;11.574;2024-03-07T02:53:19;96767.97;;;2.14
48003;BMP280;33768;48.578;11.574;2024-03-07T02:56:24;96758.78;;;2.06
48003;BMP280;33768;48.578;11.574;2024-03-07T02:59:29;96757.84;;;2.09
48003;BMP280;33768;48.578;11.574;2024-03-07T03:02:33;96755.72;;;2.13
48003;BMP280;33768;48.578;11.574;2024-03-07T03:05:37;96752.56;;;2.14
48003;BMP280;33768;48.578;11.574;2024-03-07T03:08:41;96753.88;;;2.18
48003;BMP280;33768;48.578;11.574;2024-03-07T03:11:45;96759.66;;;2.26
48003;BMP280;33768;48.578;11.574;2024-03-07T03:14:49;96761.41;;;2.29
48003;BMP280;33768;48.578;11.574;2024-03-07T03:17:53;96762.44;;;2.31
48003;BMP280;33768;48.578;11.574;2024-03-07T03:20:58;96761.97;;;2.33
48003;BMP280;33768;48.578;11.574;2024-03-07T03:24:04;96760.75;;;2.34
48003;BMP280;33768;48.578;11.574;2024-03-07T03:27:09;96759.75;;;2.31
48003;BMP280;33768;48.578;11.574;2024-03-07T03:30:13;96757.06;;;2.31
48003;BMP280;33768;48.578;11.574;2024-03-07T03:33:19;96754.09;;;2.29
48003;BMP280;33768;48.578;11.574;2024-03-07T03:36:24;96761.16;;;2.27
48003;BMP280;33768;48.578;11.574;2024-03-07T03:39:29;96763.38;;;2.28
48003;BMP280;33768;48.578;11.574;2024-03-07T03:42:33;96754.53;;;2.28
48003;BMP280;33768;48.578;11.574;2024-03-07T03:45:37;96755.00;;;2.26
48003;BMP280;33768;48.578;11.574;2024-03-07T03:48:42;96753.72;;;2.22
48003;BMP280;33768;48.578;11.574;2024-03-07T03:51:46;96749.22;;;2.19
48003;BMP280;33768;48.578;11.574;2024-03-07T03:54:50;96746.81;;;2.21
48003;BMP280;33768;48.578;11.574;2024-03-07T03:57:54;96761.50;;;2.20
48003;BMP280;33768;48.578;11.574;2024-03-07T04:00:59;96753.03;;;2.13
48003;BMP280;33768;48.578;11.574;2024-03-07T04:04:03;96746.91;;;2.12
48003;BMP280;33768;48.578;11.574;2024-03-07T04:07:09;96759.81;;;2.08
48003;BMP280;33768;48.578;11.574;2024-03-07T04:10:15;96755.81;;;2.04
48003;BMP280;33768;48.578;11.574;2024-03-07T04:13:19;96754.03;;;2.01
48003;BMP280;33768;48.578;11.574;2024-03-07T04:16:25;96759.75;;;1.94
48003;BMP280;33768;48.578;11.574;2024-03-07T04:19:30;96742.97;;;1.85
48003;BMP280;33768;48.578;11.574;2024-03-07T04:22:35;96761.81;;;1.85
48003;BMP280;33768;48.578;11.574;2024-03-07T04:25:39;96759.66;;;1.88
48003;BMP280;33768;48.578;11.574;2024-03-07T04:28:43;96755.69;;;1.84
48003;BMP280;33768;48.578;11.574;2024-03-07T04:31:47;96751.97;;;1.82
48003;BMP280;33768;48.578;11.574;2024-03-07T04:34:51;96761.81;;;1.85
48003;BMP280;33768;48.578;11.574;2024-03-07T04:37:56;96762.53;;;1.85
48003;BMP280;33768;48.578;11.574;2024-03-07T04:41:03;96753.72;;;1.85
48003;BMP280;33768;48.578;11.574;2024-03-07T04:44:07;96762.25;;;1.83
48003;BMP280;33768;48.578;11.574;2024-03-07T04:47:12;96757.91;;;1.86
48003;BMP280;33768;48.578;11.574;2024-03-07T04:50:16;96760.13;;;1.87
48003;BMP280;33768;48.578;11.574;2024-03-07T04:53:23;96765.53;;;1.87
48003;BMP280;33768;48.578;11.574;2024-03-07T04:56:28;96755.03;;;1.89
48003;BMP280;33768;48.578;11.574;2024-03-07T04:59:33;96747.72;;;1.89
48003;BMP280;33768;48.578;11.574;2024-03-07T05:02:37;96754.56;;;1.90
48003;BMP280;33768;48.578;11.574;2024-03-07T05:05:41;96765.34;;;1.90
48003;BMP280;33768;48.578;11.574;2024-03-07T05:08:45;96761.91;;;1.90
48003;BMP280;33768;48.578;11.574;2024-03-07T05:11:49;96754.75;;;1.87
48003;BMP280;33768;48.578;11.574;2024-03-07T05:14:57;96766.72;;;1.86
48003;BMP280;33768;48.578;11.574;2024-03-07T05:18:02;96758.47;;;1.89
48003;BMP280;33768;48.578;11.574;2024-03-07T05:21:06;96767.56;;;1.92
48003;BMP280;33768;48.578;11.574;2024-03-07T05:24:31;96760.25;;;1.92
48003;BMP280;33768;48.578;11.574;2024-03-07T05:27:36;96768.31;;;1.92
48003;BMP280;33768;48.578;11.574;2024-03-07T05:30:40;96759.50;;;1.92
48003;BMP280;33768;48.578;11.574;2024-03-07T05:33:44;96763.66;;;1.93
48003;BMP280;33768;48.578;11.574;2024-03-07T05:36:48;96767.56;;;1.92
48003;BMP280;33768;48.578;11.574;2024-03-07T05:39:52;96764.41;;;1.93
48003;BMP280;33768;48.578;11.574;2024-03-07T05:42:56;96765.91;;;1.94
48003;BMP280;33768;48.578;11.574;2024-03-07T05:46:01;96773.81;;;1.98
48003;BMP280;33768;48.578;11.574;2024-03-07T05:49:07;96776.31;;;2.01
48003;BMP280;33768;48.578;11.574;2024-03-07T05:52:11;96772.53;;;2.08
48003;BMP280;33768;48.578;11.574;2024-03-07T05:55:15;96779.22;;;2.12
48003;BMP280;33768;48.578;11.574;2024-03-07T05:58:22;96767.34;;;2.18
48003;BMP280;33768;48.578;11.574;2024-03-07T06:01:26;96774.97;;;2.20
48003;BMP280;33768;48.578;11.574;2024-03-07T06:04:31;96779.88;;;2.21
48003;BMP280;33768;48.578;11.574;2024-03-07T06:07:36;96780.66;;;2.22
48003;BMP280;33768;48.578;11.574;2024-03-07T06:10:41;96776.53;;;2.26
48003;BMP280;33768;48.578;11.574;2024-03-07T06:13:49;96776.53;;;2.26
48003;BMP280;33768;48.578;11.574;2024-03-07T06:16:53;96781.75;;;2.16
48003;BMP280;33768;48.578;11.574;2024-03-07T06:19:57;96776.16;;;2.19
48003;BMP280;33768;48.578;11.574;2024-03-07T06:23:03;96771.34;;;2.23
48003;BMP280;33768;48.578;11.574;2024-03-07T06:26:13;96780.25;;;2.29
48003;BMP280;33768;48.578;11.574;2024-03-07T06:29:20;96766.25;;;2.39
48003;BMP280;33768;48.578;11.574;2024-03-07T06:32:25;96769.97;;;2.42
48003;BMP280;33768;48.578;11.574;2024-03-07T06:35:30;96761.72;;;2.45
48003;BMP280;33768;48.578;11.574;2024-03-07T06:38:34;96771.75;;;2.45
48003;BMP280;33768;48.578;11.574;2024-03-07T06:41:39;96760.97;;;2.45
48003;BMP280;33768;48.578;11.574;2024-03-07T06:44:44;96770.09;;;2.47
48003;BMP280;33768;48.578;11.574;2024-03-07T06:47:49;96767.66;;;2.49
48003;BMP280;33768;48.578;11.574;2024-03-07T06:50:53;96769.34;;;2.61
48003;BMP280;33768;48.578;11.574;2024-03-07T06:53:57;96767.00;;;2.68
48003;BMP280;33768;48.578;11.574;2024-03-07T06:57:02;96778.63;;;2.60
48003;BMP280;33768;48.578;11.574;2024-03-07T07:00:07;96783.63;;;2.67
48003;BMP280;33768;48.578;11.574;2024-03-07T07:03:15;96782.72;;;2.70
48003;BMP280;33768;48.578;11.574;2024-03-07T07:06:20;96785.69;;;2.72
48003;BMP280;33768;48.578;11.574;2024-03-07T07:09:25;96784.94;;;2.71
48003;BMP280;33768;48.578;11.574;2024-03-07T07:12:29;96779.75;;;2.68
48003;BMP280;33768;48.578;11.574;2024-03-07T07:15:33;96779.00;;;2.81
48003;BMP280;33768;48.578;11.574;2024-03-07T07:18:37;96782.53;;;2.87
48003;BMP280;33768;48.578;11.574;2024-03-07T07:21:42;96775.44;;;3.04
48003;BMP280;33768;48.578;11.574;2024-03-07T07:24:47;96781.19;;;3.11
48003;BMP280;33768;48.578;11.574;2024-03-07T07:27:52;96773.91;;;3.17
48003;BMP280;33768;48.578;11.574;2024-03-07T07:30:56;96784.31;;;3.24
48003;BMP280;33768;48.578;11.574;2024-03-07T07:34:00;96772.47;;;3.36
48003;BMP280;33768;48.578;11.574;2024-03-07T07:37:05;96781.03;;;3.35
48003;BMP280;33768;48.578;11.574;2024-03-07T07:40:14;96775.72;;;3.40
48003;BMP280;33768;48.578;11.574;2024-03-07T07:43:18;96776.47;;;3.60
48003;BMP280;33768;48.578;11.574;2024-03-07T07:46:23;96779.75;;;3.64
48003;BMP280;33768;48.578;11.574;2024-03-07T07:49:27;96773.88;;;4.05
48003;BMP280;33768;48.578;11.574;2024-03-07T07:52:32;96774.03;;;4.41
48003;BMP280;33768;48.578;11.574;2024-03-07T07:55:36;96774.94;;;4.88
48003;BMP280;33768;48.578;11.574;2024-03-07T07:58:40;96762.81;;;5.39
48003;BMP280;33768;48.578;11.574;2024-03-07T08:01:44;96763.94;;;5.69
48003;BMP280;33768;48.578;11.574;2024-03-07T08:04:48;96772.19;;;5.49
48003;BMP280;33768;48.578;11.574;2024-03-07T08:07:54;96770.72;;;5.48
48003;BMP280;33768;48.578;11.574;2024-03-07T08:10:59;96770.94;;;5.81
48003;BMP280;33768;48.578;11.574;2024-03-07T08:14:03;96776.06;;;6.31
48003;BMP280;33768;48.578;11.574;2024-03-07T08:17:08;96772.91;;;6.38
48003;BMP280;33768;48.578;11.574;2024-03-07T08:20:17;96764.75;;;6.38
48003;BMP280;33768;48.578;11.574;2024-03-07T08:23:22;96766.25;;;6.50
48003;BMP280;33768;48.578;11.574;2024-03-07T08:26:30;96757.34;;;6.33
48003;BMP280;33768;48.578;11.574;2024-03-07T08:29:35;96763.41;;;6.06
48003;BMP280;33768;48.578;11.574;2024-03-07T08:32:45;96760.72;;;6.17
48003;BMP280;33768;48.578;11.574;2024-03-07T08:35:49;96761.34;;;6.64
48003;BMP280;33768;48.578;11.574;2024-03-07T08:38:53;96750.75;;;7.15
48003;BMP280;33768;48.578;11.574;2024-03-07T08:41:57;96757.91;;;7.07
48003;BMP280;33768;48.578;11.574;2024-03-07T08:45:03;96758.66;;;7.24
48003;BMP280;33768;48.578;11.574;2024-03-07T08:48:08;96765.03;;;7.59
48003;BMP280;33768;48.578;11.574;2024-03-07T08:51:12;96755.31;;;7.90
48003;BMP280;33768;48.578;11.574;2024-03-07T08:54:16;96753.03;;;8.05
48003;BMP280;33768;48.578;11.574;2024-03-07T08:57:20;96753.06;;;8.50
48003;BMP280;33768;48.578;11.574;2024-03-07T09:00:25;96744.28;;;8.73
48003;BMP280;33768;48.578;11.574;2024-03-07T09:03:30;96744.47;;;8.41
48003;BMP280;33768;48.578;11.574;2024-03-07T09:06:35;96745.75;;;8.35
48003;BMP280;33768;48.578;11.574;2024-03-07T09:09:43;96742.31;;;8.69
48003;BMP280;33768;48.578;11.574;2024-03-07T09:12:50;96739.13;;;8.99
48003;BMP280;33768;48.578;11.574;2024-03-07T09:15:55;96738.22;;;9.20
48003;BMP280;33768;48.578;11.574;2024-03-07T09:18:59;96732.34;;;9.64
48003;BMP280;33768;48.578;11.574;2024-03-07T09:22:03;96728.81;;;10.16
48003;BMP280;33768;48.578;11.574;2024-03-07T09:25:08;96735.88;;;10.42
48003;BMP280;33768;48.578;11.574;2024-03-07T09:28:12;96730.19;;;10.22
48003;BMP280;33768;48.578;11.574;2024-03-07T09:31:16;96733.38;;;10.08
48003;BMP280;33768;48.578;11.574;2024-03-07T09:34:20;96740.06;;;9.83
48003;BMP280;33768;48.578;11.574;2024-03-07T09:37:25;96733.41;;;9.79
48003;BMP280;33768;48.578;11.574;2024-03-07T09:40:29;96738.34;;;9.33
48003;BMP280;33768;48.578;11.574;2024-03-07T09:43:34;96732.50;;;8.60
48003;BMP280;33768;48.578;11.574;2024-03-07T09:46:38;96733.41;;;8.28
48003;BMP280;33768;48.578;11.574;2024-03-07T09:49:44;96725.28;;;8.23
48003;BMP280;33768;48.578;11.574;2024-03-07T09:52:49;96744.38;;;8.12
48003;BMP280;33768;48.578;11.574;2024-03-07T09:55:54;96753.56;;;7.93
48003;BMP280;33768;48.578;11.574;2024-03-07T09:58:58;96737.88;;;7.59
48003;BMP280;33768;48.578;11.574;2024-03-07T10:02:04;96737.09;;;7.69
48003;BMP280;33768;48.578;11.574;2024-03-07T10:05:10;96736.31;;;7.79
48003;BMP280;33768;48.578;11.574;2024-03-07T10:08:17;96733.03;;;8.53
48003;BMP280;33768;48.578;11.574;2024-03-07T10:11:21;96734.75;;;8.91
48003;BMP280;33768;48.578;11.574;2024-03-07T10:14:27;96736.34;;;8.75
48003;BMP280;33768;48.578;11.574;2024-03-07T10:17:31;96739.03;;;8.41
48003;BMP280;33768;48.578;11.574;2024-03-07T10:20:36;96738.59;;;8.32
48003;BMP280;33768;48.578;11.574;2024-03-07T10:23:40;96744.38;;;8.12
48003;BMP280;33768;48.578;11.574;2024-03-07T10:26:44;96729.63;;;7.91
48003;BMP280;33768;48.578;11.574;2024-03-07T10:29:52;96736.84;;;7.73
48003;BMP280;33768;48.578;11.574;2024-03-07T10:32:57;96728.91;;;7.80
48003;BMP280;33768;48.578;11.574;2024-03-07T10:36:01;96727.88;;;7.94
48003;BMP280;33768;48.578;11.574;2024-03-07T10:39:05;96726.69;;;7.73
48003;BMP280;33768;48.578;11.574;2024-03-07T10:42:20;96724.66;;;7.95
48003;BMP280;33768;48.578;11.574;2024-03-07T10:45:28;96731.34;;;7.89
48003;BMP280;33768;48.578;11.574;2024-03-07T10:48:38;96732.94;;;7.52
48003;BMP280;33768;48.578;11.574;2024-03-07T10:51:46;96722.41;;;7.16
48003;BMP280;33768;48.578;11.574;2024-03-07T10:55:40;96729.81;;;6.94
48003;BMP280;33768;48.578;11.574;2024-03-07T10:58:37;96720.69;;;6.81
48003;BMP280;33768;48.578;11.574;2024-03-07T11:04:54;96720.94;;;6.88
48003;BMP280;33768;48.578;11.574;2024-03-07T11:08:01;96716.22;;;6.94
48003;BMP280;33768;48.578;11.574;2024-03-07T11:11:11;96721.16;;;6.85
48003;BMP280;33768;48.578;11.574;2024-03-07T11:14:17;96717.72;;;6.79
48003;BMP280;33768;48.578;11.574;2024-03-07T11:17:21;96707.09;;;6.75
48003;BMP280;33768;48.578;11.574;2024-03-07T11:20:27;96715.25;;;6.91
48003;BMP280;33768;48.578;11.574;2024-03-07T11:23:44;96717.47;;;7.04
48003;BMP280;33768;48.578;11.574;2024-03-07T11:26:48;96711.75;;;7.18
48003;BMP280;33768;48.578;11.574;2024-03-07T11:29:54;96700.38;;;7.30
48003;BMP280;33768;48.578;11.574;2024-03-07T11:33:01;96710.47;;;7.41
48003;BMP280;33768;48.578;11.574;2024-03-07T11:36:11;96704.84;;;7.28
48003;BMP280;33768;48.578;11.574;2024-03-07T11:39:39;96701.38;;;7.27
48003;BMP280;33768;48.578;11.574;2024-03-07T11:42:48;96699.91;;;7.26
48003;BMP280;33768;48.578;11.574;2024-03-07T11:45:52;96696.19;;;7.29
48003;BMP280;33768;48.578;11.574;2024-03-07T11:48:57;96688.31;;;7.20
48003;BMP280;33768;48.578;11.574;2024-03-07T11:52:04;96683.09;;;7.39
48003;BMP280;33768;48.578;11.574;2024-03-07T11:55:15;96685.03;;;7.49
48003;BMP280;33768;48.578;11.574;2024-03-07T11:58:21;96675.19;;;7.41
48003;BMP280;33768;48.578;11.574;2024-03-07T12:01:26;96677.44;;;7.20
48003;BMP280;33768;48.578;11.574;2024-03-07T12:04:33;96672.53;;;7.03
48003;BMP280;33768;48.578;11.574;2024-03-07T12:07:38;96662.94;;;6.91
48003;BMP280;33768;48.578;11.574;2024-03-07T12:10:43;96669.09;;;6.75
48003;BMP280;33768;48.578;11.574;2024-03-07T12:13:48;96675.31;;;6.70
48003;BMP280;33768;48.578;11.574;2024-03-07T12:16:53;96670.09;;;6.72
48003;BMP280;33768;48.578;11.574;2024-03-07T12:19:57;96663.69;;;6.70
48003;BMP280;33768;48.578;11.574;2024-03-07T12:23:07;96663.69;;;6.64
48003;BMP280;33768;48.578;11.574;2024-03-07T12:26:19;96666.66;;;6.66
48003;BMP280;33768;48.578;11.574;2024-03-07T12:29:25;96666.66;;;6.88
48003;BMP280;33768;48.578;11.574;2024-03-07T12:32:29;96658.25;;;7.02
48003;BMP280;33768;48.578;11.574;2024-03-07T12:35:35;96659.94;;;7.16
48003;BMP280;33768;48.578;11.574;2024-03-07T12:38:39;96652.47;;;7.44
48003;BMP280;33768;48.578;11.574;2024-03-07T12:41:46;96653.44;;;7.51
48003;BMP280;33768;48.578;11.574;2024-03-07T12:44:50;96651.16;;;7.61
48003;BMP280;33768;48.578;11.574;2024-03-07T12:47:54;96647.38;;;7.80
48003;BMP280;33768;48.578;11.574;2024-03-07T12:51:00;96634.47;;;7.97
48003;BMP280;33768;48.578;11.574;2024-03-07T12:54:05;96636.22;;;7.89
48003;BMP280;33768;48.578;11.574;2024-03-07T12:57:10;96641.03;;;7.67
48003;BMP280;33768;48.578;11.574;2024-03-07T13:00:15;96634.84;;;7.72
48003;BMP280;33768;48.578;11.574;2024-03-07T13:03:26;96620.00;;;7.73
48003;BMP280;33768;48.578;11.574;2024-03-07T13:06:34;96628.19;;;7.62
48003;BMP280;33768;48.578;11.574;2024-03-07T13:09:39;96619.28;;;7.67
48003;BMP280;33768;48.578;11.574;2024-03-07T13:12:48;96635.09;;;7.63
48003;BMP280;33768;48.578;11.574;2024-03-07T13:15:56;96621.88;;;7.88
48003;BMP280;33768;48.578;11.574;2024-03-07T13:19:00;96615.47;;;7.91
48003;BMP280;33768;48.578;11.574;2024-03-07T13:22:09;96612.66;;;8.02
48003;BMP280;33768;48.578;11.574;2024-03-07T13:25:18;96618.63;;;8.41
48003;BMP280;33768;48.578;11.574;2024-03-07T13:28:25;96620.34;;;8.38
48003;BMP280;33768;48.578;11.574;2024-03-07T13:31:29;96613.16;;;8.41
48003;BMP280;33768;48.578;11.574;2024-03-07T13:34:34;96620.94;;;8.26
48003;BMP280;33768;48.578;11.574;2024-03-07T13:37:38;96608.22;;;8.05
48003;BMP280;33768;48.578;11.574;2024-03-07T13:40:42;96608.78;;;7.92
48003;BMP280;33768;48.578;11.574;2024-03-07T13:43:47;96600.91;;;7.89
48003;BMP280;33768;48.578;11.574;2024-03-07T13:46:52;96603.09;;;7.90
48003;BMP280;33768;48.578;11.574;2024-03-07T13:49:58;96606.41;;;7.73
48003;BMP280;33768;48.578;11.574;2024-03-07T13:53:03;96601.28;;;7.64
48003;BMP280;33768;48.578;11.574;2024-03-07T13:56:34;96605.28;;;7.52
48003;BMP280;33768;48.578;11.574;2024-03-07T14:00:15;96603.53;;;7.54
48003;BMP280;33768;48.578;11.574;2024-03-07T14:03:48;96600.06;;;7.59
48003;BMP280;33768;48.578;11.574;2024-03-07T14:10:57;96599.75;;;7.74
48003;BMP280;33768;48.578;11.574;2024-03-07T14:14:26;96602.84;;;7.88
48003;BMP280;33768;48.578;11.574;2024-03-07T14:17:57;96595.25;;;7.81
48003;BMP280;33768;48.578;11.574;2024-03-07T14:21:31;96597.41;;;7.94
48003;BMP280;33768;48.578;11.574;2024-03-07T14:31:51;96587.19;;;7.65
48003;BMP280;33768;48.578;11.574;2024-03-07T14:35:22;96581.50;;;7.63
48003;BMP280;33768;48.578;11.574;2024-03-07T14:38:42;96597.88;;;7.52
48003;BMP280;33768;48.578;11.574;2024-03-07T14:42:02;96589.75;;;7.47
48003;BMP280;33768;48.578;11.574;2024-03-07T14:45:12;96586.25;;;7.52
48003;BMP280;33768;48.578;11.574;2024-03-07T14:48:18;96589.16;;;7.65
48003;BMP280;33768;48.578;11.574;2024-03-07T14:51:22;96586.75;;;7.56
48003;BMP280;33768;48.578;11.574;2024-03-07T14:54:26;96590.22;;;7.46
48003;BMP280;33768;48.578;11.574;2024-03-07T14:57:30;96581.16;;;7.32
48003;BMP280;33768;48.578;11.574;2024-03-07T15:00:37;96594.50;;;7.30
48003;BMP280;33768;48.578;11.574;2024-03-07T15:03:45;96582.91;;;7.30
48003;BMP280;33768;48.578;11.574;2024-03-07T15:06:49;96589.34;;;7.21
48003;BMP280;33768;48.578;11.574;2024-03-07T15:09:56;96587.63;;;7.24
48003;BMP280;33768;48.578;11.574;2024-03-07T15:13:02;96587.09;;;7.25
48003;BMP280;33768;48.578;11.574;2024-03-07T15:16:09;96593.56;;;7.17
48003;BMP280;33768;48.578;11.574;2024-03-07T15:19:13;96590.81;;;7.22
48003;BMP280;33768;48.578;11.574;2024-03-07T15:22:18;96590.09;;;7.17
48003;BMP280;33768;48.578;11.574;2024-03-07T15:25:24;96585.69;;;7.08
48003;BMP280;33768;48.578;11.574;2024-03-07T15:28:28;96586.91;;;7.07
48003;BMP280;33768;48.578;11.574;2024-03-07T15:31:34;96584.22;;;7.02
48003;BMP280;33768;48.578;11.574;2024-03-07T15:34:38;96580.78;;;6.96
48003;BMP280;33768;48.578;11.574;2024-03-07T15:37:45;96588.94;;;6.96
48003;BMP280;33768;48.578;11.574;2024-03-07T15:40:59;96581.53;;;6.96
48003;BMP280;33768;48.578;11.574;2024-03-07T15:44:04;96579.78;;;6.99
48003;BMP280;33768;48.578;11.574;2024-03-07T15:47:10;96582.75;;;7.01
48003;BMP280;33768;48.578;11.574;2024-03-07T15:50:16;96590.88;;;6.95
48003;BMP280;33768;48.578;11.574;2024-03-07T15:53:23;96580.06;;;6.85
48003;BMP280;33768;48.578;11.574;2024-03-07T15:56:27;96587.50;;;6.79
48003;BMP280;33768;48.578;11.574;2024-03-07T15:59:31;96584.03;;;6.73
48003;BMP280;33768;48.578;11.574;2024-03-07T16:02:35;96580.59;;;6.61
48003;BMP280;33768;48.578;11.574;2024-03-07T16:05:42;96578.38;;;6.54
48003;BMP280;33768;48.578;11.574;2024-03-07T16:08:47;96578.91;;;6.48
48003;BMP280;33768;48.578;11.574;2024-03-07T16:11:52;96573.22;;;6.46
48003;BMP280;33768;48.578;11.574;2024-03-07T16:14:57;96575.19;;;6.40
48003;BMP280;33768;48.578;11.574;2024-03-07T16:18:02;96581.13;;;6.33
48003;BMP280;33768;48.578;11.574;2024-03-07T16:21:06;96572.50;;;6.29
48003;BMP280;33768;48.578;11.574;2024-03-07T16:24:10;96580.38;;;6.27
48003;BMP280;33768;48.578;11.574;2024-03-07T16:27:15;96570.53;;;6.19
48003;BMP280;33768;48.578;11.574;2024-03-07T16:30:21;96573.72;;;6.17
48003;BMP280;33768;48.578;11.574;2024-03-07T16:33:26;96578.16;;;6.09
48003;BMP280;33768;48.578;11.574;2024-03-07T16:36:32;96572.47;;;6.02
48003;BMP280;33768;48.578;11.574;2024-03-07T16:39:37;96577.88;;;5.96
48003;BMP280;33768;48.578;11.574;2024-03-07T16:42:46;96580.13;;;5.93
48003;BMP280;33768;48.578;11.574;2024-03-07T16:45:57;96578.88;;;5.88
48003;BMP280;33768;48.578;11.574;2024-03-07T16:49:01;96582.56;;;5.85
48003;BMP280;33768;48.578;11.574;2024-03-07T16:52:05;96577.38;;;5.82
48003;BMP280;33768;48.578;11.574;2024-03-07T16:55:13;96581.31;;;5.75
48003;BMP280;33768;48.578;11.574;2024-03-07T16:58:18;96582.78;;;5.71
48003;BMP280;33768;48.578;11.574;2024-03-07T17:01:22;96582.25;;;5.67
48003;BMP280;33768;48.578;11.574;2024-03-07T17:04:28;96585.69;;;5.62
48003;BMP280;33768;48.578;11.574;2024-03-07T17:07:32;96586.91;;;5.61
48003;BMP280;33768;48.578;11.574;2024-03-07T17:10:37;96587.41;;;5.60
48003;BMP280;33768;48.578;11.574;2024-03-07T17:13:44;96581.22;;;5.59
48003;BMP280;33768;48.578;11.574;2024-03-07T17:16:48;96590.34;;;5.56
48003;BMP280;33768;48.578;11.574;2024-03-07T17:19:53;96585.91;;;5.53
48003;BMP280;33768;48.578;11.574;2024-03-07T17:22:57;96593.28;;;5.58
48003;BMP280;33768;48.578;11.574;2024-03-07T17:26:05;96585.91;;;5.59
48003;BMP280;33768;48.578;11.574;2024-03-07T17:29:09;96594.53;;;5.57
48003;BMP280;33768;48.578;11.574;2024-03-07T17:32:13;96593.75;;;5.51
48003;BMP280;33768;48.578;11.574;2024-03-07T17:35:20;96586.63;;;5.48
48003;BMP280;33768;48.578;11.574;2024-03-07T17:38:24;96594.75;;;5.48
48003;BMP280;33768;48.578;11.574;2024-03-07T17:41:28;96596.22;;;5.49
48003;BMP280;33768;48.578;11.574;2024-03-07T17:44:37;96591.28;;;5.42
48003;BMP280;33768;48.578;11.574;2024-03-07T17:47:41;96597.41;;;5.37
48003;BMP280;33768;48.578;11.574;2024-03-07T17:50:45;96597.69;;;5.39
48003;BMP280;33768;48.578;11.574;2024-03-07T17:53:50;96598.63;;;5.36
48003;BMP280;33768;48.578;11.574;2024-03-07T17:56:54;96592.47;;;5.30
48003;BMP280;33768;48.578;11.574;2024-03-07T17:59:59;96599.59;;;5.28
48003;BMP280;33768;48.578;11.574;2024-03-07T18:03:05;96591.94;;;5.27
48003;BMP280;33768;48.578;11.574;2024-03-07T18:06:09;96585.56;;;5.24